createdAt,value
2022-10-08T00:04:03.526Z,100152.09
2022-10-08T00:08:08.659Z,100148.59
2022-10-08T00:12:11.989Z,100147.75
2022-10-08T00:16:18.192Z,100141.63
2022-10-08T00:20:22.832Z,100138.06
2022-10-08T00:24:26.775Z,100135.47
2022-10-08T00:28:30.046Z,100134.63
2022-10-08T00:32:33.474Z,100146.97
2022-10-08T00:36:39.443Z,100142.59
2022-10-08T00:40:43.445Z,100136.44
2022-10-08T00:44:56.136Z,100150.59
2022-10-08T00:49:03.905Z,100142.69
2022-10-08T00:53:12.755Z,100143.59
2022-10-08T00:57:16.461Z,100139.22
2022-10-08T01:01:20.581Z,100142.81
2022-10-08T01:05:32.395Z,100140.16
2022-10-08T01:09:41.759Z,100141.97
2022-10-08T01:13:51.980Z,100135.81
2022-10-08T01:18:04.530Z,100134.06
2022-10-08T01:22:21.655Z,100124.38
2022-10-08T01:26:43.504Z,100130.56
2022-10-08T01:30:51.458Z,100128.81
2022-10-08T01:34:59.246Z,100136.78
2022-10-08T01:39:06.141Z,100126.22
2022-10-08T01:43:12.573Z,100125.38
2022-10-08T01:47:21.268Z,100119.22
2022-10-08T01:51:32.974Z,100117.47
2022-10-08T01:55:39.209Z,100109.53
2022-10-08T01:59:46.487Z,100119.25
2022-10-08T02:04:10.095Z,100119.25
2022-10-08T02:08:13.268Z,100118.41
2022-10-08T02:12:16.491Z,100121.06
2022-10-08T02:16:27.357Z,100107.00
2022-10-08T02:20:35.244Z,100106.13
2022-10-08T02:24:43.212Z,100114.06
2022-10-08T02:28:50.794Z,100115.81
2022-10-08T02:33:00.635Z,100106.13
2022-10-08T02:37:11.488Z,100118.47
2022-10-08T02:41:16.547Z,100119.38
2022-10-08T02:45:24.388Z,100114.09
2022-10-08T02:49:32.139Z,100111.44
2022-10-08T02:53:40.035Z,100110.56
2022-10-08T02:57:47.335Z,100115.84
2022-10-08T03:01:53.419Z,100120.28
2022-10-08T03:05:58.822Z,100120.28
2022-10-08T03:10:05.776Z,100112.31
2022-10-08T03:14:13.673Z,100114.06
2022-10-08T03:18:17.189Z,100122.00
2022-10-08T03:22:20.714Z,100122.91
2022-10-08T03:26:25.429Z,100126.41
2022-10-08T03:30:28.480Z,100122.91
2022-10-08T03:34:31.686Z,100129.94
2022-10-08T03:38:35.269Z,100122.91
2022-10-08T03:42:39.909Z,100129.94
2022-10-08T03:46:42.792Z,100140.50
2022-10-08T03:50:52.089Z,100137.00
2022-10-08T03:54:55.170Z,100132.59
2022-10-08T03:59:01.152Z,100137.88
2022-10-08T04:03:04.114Z,100138.75
2022-10-08T04:07:07.528Z,100142.28
2022-10-08T04:11:13.213Z,100131.72
2022-10-08T04:15:17.691Z,100135.25
2022-10-08T04:19:20.835Z,100130.81
2022-10-08T04:23:24.114Z,100135.22
2022-10-08T04:27:27.483Z,100132.56
2022-10-08T04:31:32.021Z,100133.44
2022-10-08T04:35:38.469Z,100137.88
2022-10-08T04:39:41.372Z,100143.19
2022-10-08T04:43:45.220Z,100151.13
2022-10-08T04:47:49.482Z,100139.66
2022-10-08T04:51:52.552Z,100140.53
2022-10-08T04:55:56.417Z,100133.47
2022-10-08T05:00:17.727Z,100137.88
2022-10-08T05:04:23.306Z,100132.59
2022-10-08T05:08:26.278Z,100129.94
2022-10-08T05:12:29.215Z,100141.41
2022-10-08T05:16:32.545Z,100146.66
2022-10-08T05:20:38.288Z,100137.84
2022-10-08T05:24:41.328Z,100138.72
2022-10-08T05:43:57.748Z,100145.78
2022-10-08T05:48:19.659Z,100159.91
2022-10-08T05:52:41.675Z,100165.16
2022-10-08T05:57:04.860Z,100163.38
2022-10-08T06:01:28.042Z,100175.75
2022-10-08T06:11:51.240Z,100192.44
2022-10-08T06:16:14.670Z,100193.31
2022-10-08T06:20:38.033Z,100198.56
2022-10-08T06:25:24.423Z,100209.16
2022-10-08T06:30:11.767Z,100208.25
2022-10-08T06:34:34.906Z,100209.13
2022-10-08T06:45:02.089Z,100216.13
2022-10-08T06:49:26.698Z,100222.31
2022-10-08T06:53:54.200Z,100224.94
2022-10-08T06:58:15.853Z,100230.22
2022-10-08T07:02:37.868Z,100231.97
2022-10-08T07:06:59.576Z,100231.97
2022-10-08T07:11:48.450Z,100239.00
2022-10-08T07:15:51.675Z,100240.78
2022-10-08T07:19:54.969Z,100244.28
2022-10-08T07:24:00.507Z,100251.31
2022-10-08T07:28:04.827Z,100251.31
2022-10-08T07:32:07.754Z,100244.28
2022-10-08T07:36:12.888Z,100244.25
2022-10-08T07:40:15.945Z,100241.59
2022-10-08T07:44:20.502Z,100244.25
2022-10-08T07:48:23.731Z,100240.69
2022-10-08T07:52:26.669Z,100240.69
2022-10-08T07:56:29.796Z,100250.41
2022-10-08T08:00:34.659Z,100253.00
2022-10-08T08:04:37.802Z,100259.16
2022-10-08T08:08:43.519Z,100257.38
2022-10-08T08:12:46.656Z,100252.00
2022-10-08T08:16:51.080Z,100259.00
2022-10-08T08:20:59.151Z,100251.91
2022-10-08T08:25:02.222Z,100256.25
2022-10-08T08:29:10.153Z,100261.47
2022-10-08T08:33:15.072Z,100254.22
2022-10-08T08:37:17.958Z,100259.38
2022-10-08T08:41:33.949Z,100253.91
2022-10-08T08:45:47.150Z,100251.94
2022-10-08T08:49:54.564Z,100256.97
2022-10-08T08:53:57.831Z,100256.81
2022-10-08T08:58:11.092Z,100257.63
2022-10-08T09:02:20.847Z,100255.81
2022-10-08T09:06:26.942Z,100254.78
2022-10-08T09:10:38.821Z,100250.31
2022-10-08T09:14:45.902Z,100252.88
2022-10-08T09:18:50.703Z,100248.38
2022-10-08T09:22:55.790Z,100254.44
2022-10-08T09:26:58.739Z,100244.66
2022-10-08T09:31:14.406Z,100243.72
2022-10-08T09:35:18.035Z,100247.16
2022-10-08T09:39:24.513Z,100248.75
2022-10-08T09:43:27.461Z,100243.31
2022-10-08T09:47:31.142Z,100246.81
2022-10-08T09:51:35.571Z,100244.00
2022-10-08T09:55:41.019Z,100245.75
2022-10-08T09:59:51.629Z,100239.47
2022-10-08T10:03:56.342Z,100244.69
2022-10-08T10:07:59.594Z,100243.06
2022-10-08T10:12:10.522Z,100242.13
2022-10-08T10:16:18.157Z,100231.41
2022-10-08T10:20:26.417Z,100228.63
2022-10-08T10:24:38.910Z,100225.81
2022-10-08T10:28:47.116Z,100214.00
2022-10-08T10:32:55.663Z,100216.59
2022-10-08T10:37:00.700Z,100203.00
2022-10-08T10:41:12.598Z,100209.75
2022-10-08T10:45:22.677Z,100192.75
2022-10-08T10:49:30.870Z,100185.41
2022-10-08T10:53:45.187Z,100179.03
2022-10-08T10:58:03.662Z,100173.47
2022-10-08T11:02:17.764Z,100170.50
2022-10-08T11:06:38.670Z,100162.28
2022-10-08T11:10:57.597Z,100153.22
2022-10-08T11:15:11.597Z,100159.19
2022-10-08T11:19:27.419Z,100150.00
2022-10-08T11:23:46.767Z,100149.09
2022-10-08T11:28:06.188Z,100141.09
2022-10-08T11:32:13.580Z,100141.91
2022-10-08T11:36:29.238Z,100138.31
2022-10-08T11:40:40.426Z,100135.28
2022-10-08T11:44:43.637Z,100123.69
2022-10-08T11:48:46.843Z,100122.72
2022-10-08T11:52:52.349Z,100118.16
2022-10-08T11:57:14.204Z,100116.22
2022-10-08T12:01:17.159Z,100107.16
2022-10-08T12:05:36.747Z,100102.44
2022-10-08T12:10:09.936Z,100090.63
2022-10-08T12:14:45.695Z,100087.06
2022-10-08T12:18:52.546Z,100089.84
2022-10-08T12:23:02.889Z,100088.78
2022-10-08T12:27:31.661Z,100076.22
2022-10-08T12:31:40.007Z,100083.25
2022-10-08T12:35:57.156Z,100082.22
2022-10-08T12:40:08.587Z,100076.63
2022-10-08T12:44:29.029Z,100073.75
2022-10-08T12:48:39.873Z,100078.97
2022-10-08T12:52:42.975Z,100074.41
2022-10-08T12:56:46.114Z,100076.09
2022-10-08T13:00:55.329Z,100065.38
2022-10-08T13:04:58.324Z,100061.66
2022-10-08T13:09:05.890Z,100057.06
2022-10-08T13:13:33.327Z,100057.94
2022-10-08T13:17:37.930Z,100052.69
2022-10-08T13:21:41.087Z,100042.06
2022-10-08T13:25:44.169Z,100050.16
2022-10-08T13:29:47.248Z,100042.88
2022-10-08T13:33:52.393Z,100030.28
2022-10-08T13:37:56.535Z,100041.75
2022-10-08T13:42:01.907Z,100044.50
2022-10-08T13:46:04.911Z,100046.28
2022-10-08T13:50:10.090Z,100036.44
2022-10-08T13:54:13.606Z,100038.16
2022-10-08T13:58:18.063Z,100033.56
2022-10-08T14:02:21.511Z,100041.47
2022-10-08T14:06:26.131Z,100037.06
2022-10-08T14:10:29.797Z,100032.63
2022-10-08T14:14:32.835Z,100031.69
2022-10-08T14:18:35.867Z,100041.41
2022-10-08T14:22:40.230Z,100037.78
2022-10-08T14:26:43.239Z,100036.13
2022-10-08T14:30:46.528Z,100032.66
2022-10-08T14:34:49.619Z,100030.84
2022-10-08T14:38:54.291Z,100031.69
2022-10-08T14:42:57.235Z,100031.69
2022-10-08T14:47:00.283Z,100016.63
2022-10-08T14:51:03.360Z,100024.59
2022-10-08T14:55:08.791Z,100020.91
2022-10-08T14:59:12.271Z,100019.16
2022-10-08T15:03:15.574Z,100021.00
2022-10-08T15:07:18.672Z,100014.94
2022-10-08T15:11:23.455Z,100016.06
2022-10-08T15:15:26.544Z,100024.22
2022-10-08T15:19:29.560Z,100016.25
2022-10-08T15:23:32.769Z,100016.38
2022-10-08T15:27:37.167Z,100020.91
2022-10-08T15:31:40.220Z,100032.63
2022-10-08T15:35:43.491Z,100032.75
2022-10-08T15:39:46.504Z,100035.72
2022-10-08T15:43:51.036Z,100024.38
2022-10-08T15:47:54.382Z,100029.91
2022-10-08T15:51:57.590Z,100035.31
2022-10-08T15:56:00.811Z,100032.78
2022-10-08T16:00:05.924Z,100044.50
2022-10-08T16:04:15.486Z,100047.41
2022-10-08T16:08:18.731Z,100036.97
2022-10-08T16:12:21.780Z,100035.38
2022-10-08T16:16:26.505Z,100043.47
2022-10-08T16:20:29.694Z,100044.56
2022-10-08T16:24:32.690Z,100047.38
2022-10-08T16:28:39.558Z,100044.84
2022-10-08T16:32:43.991Z,100058.28
2022-10-08T16:36:48.272Z,100059.28
2022-10-08T16:40:51.446Z,100064.78
2022-10-08T16:44:54.397Z,100064.00
2022-10-08T16:49:01.840Z,100066.81
2022-10-08T16:53:05.962Z,100073.19
2022-10-08T16:57:09.115Z,100076.03
2022-10-08T17:01:12.223Z,100078.88
2022-10-08T17:05:17.830Z,100085.22
2022-10-08T17:09:21.513Z,100097.78
2022-10-08T17:13:24.532Z,100102.41
2022-10-08T17:17:27.845Z,100107.00
2022-10-08T17:21:34.988Z,100116.03
2022-10-08T17:25:38.428Z,100115.34
2022-10-08T17:29:41.583Z,100128.81
2022-10-08T17:33:45.037Z,100134.31
2022-10-08T17:37:49.622Z,100142.53
2022-10-08T17:41:53.197Z,100138.31
2022-10-08T17:45:56.287Z,100138.53
2022-10-08T17:49:59.483Z,100145.72
2022-10-08T17:54:06.034Z,100146.75
2022-10-08T17:58:09.035Z,100146.84
2022-10-08T18:02:12.420Z,100151.38
2022-10-08T18:06:15.998Z,100148.81
2022-10-08T18:10:20.575Z,100154.22
2022-10-08T18:14:23.941Z,100165.91
2022-10-08T18:18:27.156Z,100178.44
2022-10-08T18:22:30.264Z,100170.56
2022-10-08T18:26:37.140Z,100167.06
2022-10-08T18:30:40.616Z,100174.22
2022-10-08T18:34:43.715Z,100179.66
2022-10-08T18:38:48.367Z,100180.59
2022-10-08T18:42:52.765Z,100178.00
2022-10-08T18:46:55.788Z,100185.13
2022-10-08T18:51:03.816Z,100176.28
2022-10-08T18:55:07.826Z,100183.44
2022-10-08T18:59:15.186Z,100191.53
2022-10-08T19:03:18.385Z,100192.47
2022-10-08T19:07:21.374Z,100204.91
2022-10-08T19:11:27.125Z,100202.25
2022-10-08T19:15:31.556Z,100208.53
2022-10-08T19:19:34.578Z,100220.97
2022-10-08T19:23:37.726Z,100221.06
2022-10-08T19:27:41.447Z,100221.09
2022-10-08T19:31:47.658Z,100222.03
2022-10-08T19:35:50.825Z,100238.09
2022-10-08T19:39:53.804Z,100231.13
2022-10-08T19:43:58.174Z,100243.50
2022-10-08T19:48:02.716Z,100250.59
2022-10-08T19:52:05.929Z,100255.88
2022-10-08T19:56:10.511Z,100269.09
2022-10-08T20:00:14.723Z,100272.63
2022-10-08T20:04:22.325Z,100287.66
2022-10-08T20:08:50.343Z,100289.44
2022-10-08T20:12:54.609Z,100295.63
2022-10-08T20:16:58.270Z,100301.88
2022-10-08T20:24:54.520Z,100318.69
2022-10-08T20:28:59.741Z,100334.63
2022-10-08T20:33:02.971Z,100341.72
2022-10-08T20:37:06.101Z,100346.13
2022-10-08T20:41:11.552Z,100343.44
2022-10-08T20:45:14.712Z,100339.94
2022-10-08T20:49:18.563Z,100335.53
2022-10-08T20:53:21.591Z,100347.06
2022-10-08T20:57:26.066Z,100362.97
2022-10-08T21:01:31.126Z,100360.31
2022-10-08T21:05:40.085Z,100370.06
2022-10-08T21:09:43.394Z,100372.69
2022-10-08T21:13:48.933Z,100361.16
2022-10-08T21:17:51.907Z,100377.97
2022-10-08T21:21:54.938Z,100377.97
2022-10-08T21:26:07.577Z,100388.56
2022-10-08T21:30:13.855Z,100387.66
2022-10-08T21:34:17.057Z,100375.28
2022-10-08T21:38:20.081Z,100378.81
2022-10-08T21:42:23.386Z,100383.25
2022-10-08T21:46:29.615Z,100382.34
2022-10-08T21:50:35.927Z,100392.09
2022-10-08T21:54:39.386Z,100397.41
2022-10-08T21:58:44.577Z,100407.16
2022-10-08T22:02:49.446Z,100409.84
2022-10-08T22:06:54.357Z,100407.22
2022-10-08T22:10:57.917Z,100408.16
2022-10-08T22:15:01.237Z,100404.59
2022-10-08T22:19:06.423Z,100401.06
2022-10-08T22:23:09.912Z,100395.84
2022-10-08T22:27:13.149Z,100390.53
2022-10-08T22:31:18.087Z,100390.53
2022-10-08T22:35:22.519Z,100391.38
2022-10-08T22:39:25.794Z,100415.31
2022-10-08T22:43:28.811Z,100417.97
2022-10-08T22:47:31.791Z,100421.53
2022-10-08T22:51:36.803Z,100435.69
2022-10-08T22:55:41.899Z,100421.53
2022-10-08T22:59:45.092Z,100427.72
2022-10-08T23:03:48.498Z,100425.06
2022-10-08T23:07:57.079Z,100432.13
2022-10-08T23:12:00.044Z,100441.00
2022-10-08T23:16:05.236Z,100449.84
2022-10-08T23:20:08.939Z,100447.19
2022-10-08T23:24:13.746Z,100440.94
2022-10-08T23:28:17.014Z,100446.25
2022-10-08T23:32:20.088Z,100455.16
2022-10-08T23:36:25.902Z,100462.22
2022-10-08T23:40:30.306Z,100484.38
2022-10-08T23:44:34.747Z,100478.16
2022-10-08T23:48:38.225Z,100478.13
2022-10-08T23:52:41.230Z,100486.13
2022-10-08T23:56:45.653Z,100493.22
